createdAt,value
2023-03-02T00:01:11.093Z,4.07
2023-03-02T00:03:39.831Z,4.10
2023-03-02T00:06:07.235Z,4.07
2023-03-02T00:08:34.910Z,4.20
2023-03-02T00:11:02.113Z,4.47
2023-03-02T00:13:32.822Z,4.25
2023-03-02T00:15:59.924Z,3.97
2023-03-02T00:18:27.062Z,4.30
2023-03-02T00:20:54.057Z,4.20
2023-03-02T00:23:21.115Z,3.90
2023-03-02T00:25:48.184Z,4.18
2023-03-02T00:28:15.232Z,4.07
2023-03-02T00:30:42.232Z,4.03
2023-03-02T00:33:09.217Z,4.25
2023-03-02T00:35:40.021Z,4.10
2023-03-02T00:38:07.373Z,4.20
2023-03-02T00:40:35.148Z,4.35
2023-03-02T00:43:02.159Z,4.32
2023-03-02T00:45:29.190Z,4.07
2023-03-02T00:47:56.250Z,4.03
2023-03-02T00:50:23.320Z,4.25
2023-03-02T00:52:50.392Z,4.40
2023-03-02T00:55:17.514Z,3.95
2023-03-02T00:57:44.576Z,4.18
2023-03-02T01:00:11.845Z,4.40
2023-03-02T01:02:44.455Z,4.30
2023-03-02T01:05:11.742Z,4.28
2023-03-02T01:07:38.732Z,4.30
2023-03-02T01:10:06.004Z,4.20
2023-03-02T01:12:33.501Z,4.28
2023-03-02T01:15:00.606Z,4.20
2023-03-02T01:17:28.150Z,4.20
2023-03-02T01:19:55.233Z,4.20
2023-03-02T01:22:22.828Z,3.83
2023-03-02T01:24:50.292Z,4.45
2023-03-02T01:27:17.333Z,4.20
2023-03-02T01:29:44.408Z,4.13
2023-03-02T01:32:11.449Z,4.10
2023-03-02T01:34:38.548Z,4.38
2023-03-02T01:37:05.543Z,4.20
2023-03-02T01:39:32.576Z,3.97
2023-03-02T01:41:59.556Z,4.18
2023-03-02T01:44:35.618Z,4.45
2023-03-02T01:47:03.936Z,4.18
2023-03-02T01:49:33.383Z,4.10
2023-03-02T01:52:00.379Z,4.38
2023-03-02T01:54:27.480Z,4.13
2023-03-02T01:56:58.143Z,4.10
2023-03-02T01:59:25.803Z,4.20
2023-03-02T02:01:54.528Z,4.15
2023-03-02T02:04:22.452Z,4.32
2023-03-02T02:06:54.436Z,4.20
2023-03-02T02:09:23.209Z,4.35
2023-03-02T02:11:50.290Z,4.25
2023-03-02T02:14:17.577Z,4.30
2023-03-02T02:16:44.804Z,4.20
2023-03-02T02:19:16.029Z,4.03
2023-03-02T02:21:43.028Z,4.20
2023-03-02T02:24:10.026Z,4.05
2023-03-02T02:26:43.697Z,4.43
2023-03-02T02:29:25.708Z,4.00
2023-03-02T02:31:58.903Z,4.30
2023-03-02T02:34:29.903Z,4.43
2023-03-02T02:36:58.812Z,4.00
2023-03-02T02:39:30.995Z,4.35
2023-03-02T02:42:00.034Z,4.38
2023-03-02T02:44:27.132Z,4.20
2023-03-02T02:46:54.153Z,4.07
2023-03-02T02:49:32.008Z,4.05
2023-03-02T02:51:59.791Z,4.10
2023-03-02T02:54:27.155Z,4.30
2023-03-02T02:56:54.760Z,4.40
2023-03-02T02:59:23.927Z,4.32
2023-03-02T03:01:51.526Z,4.15
2023-03-02T03:04:20.199Z,4.30
2023-03-02T03:06:55.098Z,4.30
2023-03-02T03:09:22.405Z,4.13
2023-03-02T03:11:53.801Z,4.30
2023-03-02T03:14:22.653Z,4.20
2023-03-02T03:16:50.734Z,4.30
2023-03-02T03:19:18.200Z,4.40
2023-03-02T03:21:45.537Z,4.27
2023-03-02T03:24:12.876Z,4.30
2023-03-02T03:26:39.947Z,4.30
2023-03-02T03:29:07.440Z,4.07
2023-03-02T03:31:34.691Z,4.10
2023-03-02T03:34:01.929Z,4.13
2023-03-02T03:36:30.255Z,4.30
2023-03-02T03:38:57.884Z,4.30
2023-03-02T03:41:25.271Z,4.13
2023-03-02T03:43:52.274Z,4.20
2023-03-02T03:46:19.415Z,4.10
2023-03-02T03:48:46.505Z,4.45
2023-03-02T03:51:13.542Z,4.13
2023-03-02T03:53:40.599Z,4.40
2023-03-02T03:56:07.970Z,4.55
2023-03-02T03:58:35.327Z,4.25
2023-03-02T04:01:03.239Z,4.22
2023-03-02T04:03:30.473Z,4.43
2023-03-02T04:05:57.456Z,4.40
2023-03-02T04:08:24.512Z,4.40
2023-03-02T04:10:51.673Z,4.30
2023-03-02T04:13:18.678Z,4.60
2023-03-02T04:15:47.195Z,4.50
2023-03-02T04:18:14.382Z,4.20
2023-03-02T04:20:41.424Z,4.13
2023-03-02T04:23:08.528Z,4.25
2023-03-02T04:25:35.588Z,4.37
2023-03-02T04:28:02.864Z,3.90
2023-03-02T04:30:30.073Z,4.15
2023-03-02T04:32:57.618Z,4.45
2023-03-02T04:35:25.448Z,4.50
2023-03-02T04:37:54.037Z,4.28
2023-03-02T04:40:21.178Z,4.28
2023-03-02T04:42:48.426Z,4.47
2023-03-02T04:45:15.545Z,4.43
2023-03-02T04:47:43.065Z,4.03
2023-03-02T04:50:10.918Z,4.22
2023-03-02T04:52:37.967Z,4.20
2023-03-02T04:55:05.619Z,4.50
2023-03-02T04:57:32.682Z,4.15
2023-03-02T04:59:59.682Z,4.27
2023-03-02T05:02:26.764Z,4.47
2023-03-02T05:04:53.881Z,4.50
2023-03-02T05:07:22.179Z,4.20
2023-03-02T05:09:49.224Z,4.20
2023-03-02T05:12:19.031Z,4.10
2023-03-02T05:14:46.107Z,4.25
2023-03-02T05:17:13.123Z,4.70
2023-03-02T05:19:40.173Z,4.05
2023-03-02T05:22:09.426Z,4.18
2023-03-02T05:24:37.271Z,4.13
2023-03-02T05:27:04.764Z,4.40
2023-03-02T05:29:31.764Z,4.18
2023-03-02T05:31:58.868Z,4.13
2023-03-02T05:34:26.862Z,4.60
2023-03-02T05:36:53.890Z,4.30
2023-03-02T05:39:20.906Z,4.32
2023-03-02T05:41:48.537Z,4.40
2023-03-02T05:44:15.594Z,4.47
2023-03-02T05:46:42.639Z,4.00
2023-03-02T05:49:10.608Z,4.47
2023-03-02T05:51:37.617Z,4.38
2023-03-02T05:54:04.605Z,4.68
2023-03-02T05:56:32.018Z,4.20
2023-03-02T05:58:59.299Z,4.40
2023-03-02T06:01:26.692Z,4.13
2023-03-02T06:03:54.383Z,4.07
2023-03-02T06:06:21.383Z,4.18
2023-03-02T06:08:48.829Z,4.50
2023-03-02T06:11:15.808Z,4.18
2023-03-02T06:13:42.802Z,4.35
2023-03-02T06:16:09.935Z,4.40
2023-03-02T06:18:39.179Z,4.40
2023-03-02T06:21:06.853Z,4.30
2023-03-02T06:23:33.868Z,4.30
2023-03-02T06:26:01.041Z,4.40
2023-03-02T06:28:28.084Z,4.20
2023-03-02T06:30:55.161Z,4.40
2023-03-02T06:33:22.247Z,4.22
2023-03-02T06:35:50.235Z,4.20
2023-03-02T06:38:17.496Z,4.32
2023-03-02T06:40:44.719Z,4.23
2023-03-02T06:43:11.915Z,4.60
2023-03-02T06:45:39.438Z,4.40
2023-03-02T06:48:06.835Z,4.20
2023-03-02T06:50:34.265Z,4.60
2023-03-02T06:53:01.456Z,4.30
2023-03-02T06:55:28.592Z,4.30
2023-03-02T06:57:55.745Z,4.18
2023-03-02T07:00:28.091Z,4.60
2023-03-02T07:02:56.345Z,4.13
2023-03-02T07:05:24.325Z,4.20
2023-03-02T07:07:51.496Z,4.45
2023-03-02T07:10:18.727Z,4.25
2023-03-02T07:12:45.868Z,4.15
2023-03-02T07:15:14.172Z,4.25
2023-03-02T07:17:42.389Z,4.43
2023-03-02T07:20:09.886Z,4.00
2023-03-02T07:22:37.093Z,4.18
2023-03-02T07:25:04.234Z,4.25
2023-03-02T07:27:31.412Z,4.33
2023-03-02T07:29:58.511Z,4.13
2023-03-02T07:32:25.761Z,3.60
2023-03-02T07:34:52.909Z,3.10
2023-03-02T07:37:20.107Z,2.53
2023-03-02T07:39:48.948Z,2.37
2023-03-02T07:42:16.024Z,2.30
2023-03-02T07:44:44.825Z,2.50
2023-03-02T07:47:11.945Z,2.30
2023-03-02T07:49:39.247Z,2.30
2023-03-02T07:52:06.768Z,2.55
2023-03-02T07:54:33.896Z,2.72
2023-03-02T07:57:01.072Z,3.28
2023-03-02T07:59:28.943Z,3.00
2023-03-02T08:01:58.501Z,2.90
2023-03-02T08:04:26.170Z,2.42
2023-03-02T08:06:56.245Z,2.88
2023-03-02T08:09:31.063Z,2.97
2023-03-02T08:11:58.199Z,2.93
2023-03-02T08:14:25.515Z,2.75
2023-03-02T08:16:52.685Z,2.72
2023-03-02T08:19:22.987Z,2.47
2023-03-02T08:21:50.124Z,2.70
2023-03-02T08:24:17.884Z,2.63
2023-03-02T08:26:45.011Z,2.67
2023-03-02T08:29:15.768Z,2.90
2023-03-02T08:32:06.527Z,2.42
2023-03-02T08:34:41.334Z,3.13
2023-03-02T08:37:08.522Z,3.05
2023-03-02T08:39:35.834Z,3.10
2023-03-02T08:42:02.952Z,3.17
2023-03-02T08:44:30.029Z,2.70
2023-03-02T08:46:57.413Z,2.70
2023-03-02T08:49:25.090Z,2.92
2023-03-02T08:51:53.992Z,2.90
2023-03-02T08:54:21.867Z,2.92
2023-03-02T08:56:49.276Z,3.03
2023-03-02T08:59:16.893Z,3.13
2023-03-02T09:01:44.270Z,3.00
2023-03-02T09:04:12.161Z,3.20
2023-03-02T09:06:40.723Z,3.10
2023-03-02T09:09:08.308Z,3.00
2023-03-02T09:11:35.793Z,3.05
2023-03-02T09:14:03.350Z,2.90
2023-03-02T09:16:30.695Z,3.10
2023-03-02T09:18:58.001Z,2.92
2023-03-02T09:21:25.259Z,3.10
2023-03-02T09:23:55.597Z,3.00
2023-03-02T09:26:22.834Z,3.45
2023-03-02T09:28:49.941Z,3.33
2023-03-02T09:31:17.117Z,3.35
2023-03-02T09:33:44.910Z,3.13
2023-03-02T09:36:13.799Z,3.37
2023-03-02T09:38:40.887Z,3.38
2023-03-02T09:41:14.150Z,2.95
2023-03-02T09:43:41.276Z,3.10
2023-03-02T09:46:16.522Z,3.05
2023-03-02T09:48:49.802Z,3.30
2023-03-02T09:51:23.120Z,3.20
2023-03-02T09:54:02.803Z,3.40
2023-03-02T09:56:30.273Z,3.38
2023-03-02T09:59:05.981Z,3.30
2023-03-02T10:01:35.352Z,3.22
2023-03-02T10:04:29.088Z,3.22
2023-03-02T10:07:11.692Z,3.53
2023-03-02T10:09:39.229Z,3.03
2023-03-02T10:12:08.010Z,3.47
2023-03-02T10:14:40.889Z,3.40
2023-03-02T10:17:29.823Z,3.28
2023-03-02T10:20:01.225Z,3.40
2023-03-02T10:22:30.588Z,3.60
2023-03-02T10:25:00.218Z,3.50
2023-03-02T10:27:33.032Z,3.60
2023-03-02T10:30:00.103Z,3.47
2023-03-02T10:32:32.347Z,3.28
2023-03-02T10:35:01.353Z,3.47
2023-03-02T10:37:31.825Z,3.00
2023-03-02T10:39:59.146Z,3.70
2023-03-02T10:42:26.234Z,3.50
2023-03-02T10:44:56.233Z,3.38
2023-03-02T10:47:30.904Z,3.75
2023-03-02T10:49:58.496Z,3.80
2023-03-02T10:52:26.378Z,3.50
2023-03-02T10:55:06.694Z,3.85
2023-03-02T10:57:41.131Z,4.10
2023-03-02T11:00:11.462Z,7.15
2023-03-02T11:02:38.508Z,4.80
2023-03-02T11:05:20.890Z,4.60
2023-03-02T11:08:00.183Z,4.47
2023-03-02T11:10:30.110Z,3.88
2023-03-02T11:12:57.284Z,3.85
2023-03-02T11:15:24.422Z,3.50
2023-03-02T11:17:56.208Z,3.85
2023-03-02T11:20:25.982Z,3.83
2023-03-02T11:22:57.639Z,3.70
2023-03-02T11:25:27.161Z,4.13
2023-03-02T11:28:01.417Z,3.60
2023-03-02T11:30:29.708Z,3.92
2023-03-02T11:33:03.152Z,3.83
2023-03-02T11:35:33.353Z,3.80
2023-03-02T11:38:03.616Z,3.50
2023-03-02T11:40:37.532Z,3.78
2023-03-02T11:43:04.881Z,3.70
2023-03-02T11:45:35.693Z,3.63
2023-03-02T11:48:23.280Z,3.70
2023-03-02T11:50:50.258Z,4.05
2023-03-02T11:53:19.537Z,3.90
2023-03-02T11:55:48.618Z,4.10
2023-03-02T11:58:20.471Z,3.85
2023-03-02T12:00:48.276Z,4.10
2023-03-02T12:03:15.272Z,3.92
2023-03-02T12:05:43.890Z,3.87
2023-03-02T12:08:22.310Z,3.75
2023-03-02T12:11:04.826Z,3.97
2023-03-02T12:13:32.319Z,4.10
2023-03-02T12:15:59.789Z,4.20
2023-03-02T12:18:31.249Z,3.90
2023-03-02T12:21:01.476Z,3.70
2023-03-02T12:23:28.884Z,3.90
2023-03-02T12:26:23.983Z,4.07
2023-03-02T12:29:03.125Z,4.40
2023-03-02T12:31:46.828Z,3.88
2023-03-02T12:34:26.415Z,3.97
2023-03-02T12:36:55.238Z,4.18
2023-03-02T12:39:41.459Z,4.05
2023-03-02T12:42:08.521Z,4.28
2023-03-02T12:44:44.053Z,4.10
2023-03-02T12:47:16.931Z,4.47
2023-03-02T12:49:50.568Z,4.17
2023-03-02T12:52:28.663Z,4.13
2023-03-02T12:55:02.061Z,4.45
2023-03-02T12:57:29.385Z,5.38
2023-03-02T12:59:59.591Z,7.88
2023-03-02T13:02:29.106Z,9.82
2023-03-02T13:04:57.870Z,10.70
2023-03-02T13:07:26.651Z,8.68
2023-03-02T13:09:57.056Z,8.35
2023-03-02T13:12:26.060Z,9.30
2023-03-02T13:14:54.928Z,10.52
2023-03-02T13:17:30.880Z,9.52
2023-03-02T13:20:02.069Z,9.53
2023-03-02T13:22:29.545Z,9.90
2023-03-02T13:25:00.243Z,9.52
2023-03-02T13:27:27.438Z,8.45
2023-03-02T13:29:57.962Z,8.63
2023-03-02T13:32:40.643Z,8.80
2023-03-02T13:35:16.526Z,8.68
2023-03-02T13:37:44.438Z,8.65
2023-03-02T13:40:34.650Z,8.15
2023-03-02T13:43:01.893Z,8.10
2023-03-02T13:45:28.989Z,8.15
2023-03-02T13:47:56.960Z,7.70
2023-03-02T13:50:24.163Z,8.50
2023-03-02T13:52:52.364Z,8.23
2023-03-02T13:55:20.641Z,7.68
2023-03-02T13:57:48.980Z,7.80
2023-03-02T14:00:35.866Z,7.32
2023-03-02T14:03:02.978Z,8.57
2023-03-02T14:05:33.725Z,8.20
2023-03-02T14:08:00.987Z,8.40
2023-03-02T14:10:28.053Z,8.00
2023-03-02T14:13:05.234Z,8.05
2023-03-02T14:15:32.782Z,7.90
2023-03-02T14:18:00.495Z,8.13
2023-03-02T14:20:27.692Z,7.93
2023-03-02T14:22:54.861Z,7.50
2023-03-02T14:25:22.526Z,7.82
2023-03-02T14:27:49.662Z,7.40
2023-03-02T14:30:21.461Z,7.57
2023-03-02T14:32:48.462Z,7.65
2023-03-02T14:35:16.675Z,7.38
2023-03-02T14:37:46.259Z,7.40
2023-03-02T14:40:16.344Z,7.18
2023-03-02T14:42:43.424Z,7.30
2023-03-02T14:45:10.915Z,7.22
2023-03-02T14:47:37.901Z,7.03
2023-03-02T14:50:05.352Z,6.72
2023-03-02T14:52:38.838Z,6.60
2023-03-02T14:55:29.381Z,6.50
2023-03-02T14:58:00.389Z,6.68
2023-03-02T15:00:27.887Z,6.70
2023-03-02T15:02:55.515Z,6.40
2023-03-02T15:05:22.720Z,6.97
2023-03-02T15:07:50.304Z,6.65
2023-03-02T15:10:21.436Z,6.82
2023-03-02T15:12:48.510Z,6.53
2023-03-02T15:15:15.577Z,6.63
2023-03-02T15:17:42.765Z,6.55
2023-03-02T15:20:14.379Z,6.25
2023-03-02T15:22:41.397Z,6.07
2023-03-02T15:25:08.823Z,6.57
2023-03-02T15:27:35.857Z,6.57
2023-03-02T15:30:02.888Z,5.82
2023-03-02T15:32:29.998Z,6.32
2023-03-02T15:34:56.991Z,5.70
2023-03-02T15:37:23.998Z,6.47
2023-03-02T15:39:55.251Z,6.07
2023-03-02T15:42:22.572Z,6.00
2023-03-02T15:44:49.730Z,6.32
2023-03-02T15:47:16.999Z,5.57
2023-03-02T15:49:44.108Z,5.90
2023-03-02T15:52:12.323Z,5.83
2023-03-02T15:54:39.438Z,5.63
2023-03-02T15:57:06.458Z,5.20
2023-03-02T15:59:33.704Z,5.55
2023-03-02T16:02:02.212Z,6.43
2023-03-02T16:04:30.191Z,5.53
2023-03-02T16:06:57.598Z,5.50
2023-03-02T16:09:25.152Z,5.97
2023-03-02T16:11:52.721Z,5.30
2023-03-02T16:14:19.743Z,5.25
2023-03-02T16:16:46.977Z,5.30
2023-03-02T16:19:16.611Z,5.57
2023-03-02T16:21:45.374Z,5.37
2023-03-02T16:24:13.126Z,5.28
2023-03-02T16:26:40.178Z,5.47
2023-03-02T16:29:09.962Z,5.25
2023-03-02T16:31:42.056Z,5.40
2023-03-02T16:34:10.105Z,5.05
2023-03-02T16:36:38.102Z,5.07
2023-03-02T16:39:08.182Z,5.22
2023-03-02T16:41:35.596Z,4.95
2023-03-02T16:44:06.648Z,5.00
2023-03-02T16:46:39.319Z,4.93
2023-03-02T16:49:06.855Z,4.55
2023-03-02T16:51:34.191Z,5.35
2023-03-02T16:54:04.794Z,5.20
2023-03-02T16:56:31.973Z,5.00
2023-03-02T16:59:00.220Z,5.10
2023-03-02T17:01:28.157Z,4.78
2023-03-02T17:03:55.402Z,5.55
2023-03-02T17:06:24.757Z,5.13
2023-03-02T17:08:52.506Z,5.25
2023-03-02T17:11:19.767Z,4.82
2023-03-02T17:13:48.994Z,5.03
2023-03-02T17:16:16.735Z,4.97
2023-03-02T17:18:46.759Z,4.85
2023-03-02T17:21:14.664Z,4.87
2023-03-02T17:23:41.730Z,4.50
2023-03-02T17:26:08.926Z,4.88
2023-03-02T17:28:35.926Z,4.77
2023-03-02T17:31:04.436Z,4.97
2023-03-02T17:33:34.299Z,4.50
2023-03-02T17:36:09.310Z,5.10
2023-03-02T17:38:36.831Z,4.80
2023-03-02T17:41:05.131Z,4.93
2023-03-02T17:43:36.064Z,4.70
2023-03-02T17:46:20.391Z,4.80
2023-03-02T17:48:48.838Z,4.72
2023-03-02T17:51:16.214Z,4.57
2023-03-02T17:53:43.968Z,4.35
2023-03-02T17:56:11.604Z,4.63
2023-03-02T17:58:44.942Z,4.53
2023-03-02T18:01:12.536Z,4.63
2023-03-02T18:03:39.600Z,4.10
2023-03-02T18:06:06.920Z,4.80
2023-03-02T18:08:33.980Z,5.00
2023-03-02T18:11:01.277Z,4.53
2023-03-02T18:13:28.391Z,4.38
2023-03-02T18:15:57.635Z,4.20
2023-03-02T18:18:24.811Z,4.50
2023-03-02T18:20:51.833Z,4.68
2023-03-02T18:23:19.104Z,4.40
2023-03-02T18:25:46.085Z,4.50
2023-03-02T18:28:13.135Z,4.50
2023-03-02T18:30:40.132Z,4.97
2023-03-02T18:33:07.234Z,4.00
2023-03-02T18:35:34.762Z,4.23
2023-03-02T18:38:01.863Z,4.72
2023-03-02T18:40:28.921Z,4.33
2023-03-02T18:42:56.411Z,4.20
2023-03-02T18:45:28.019Z,4.55
2023-03-02T18:47:55.466Z,4.28
2023-03-02T18:50:22.982Z,4.00
2023-03-02T18:52:52.701Z,4.28
2023-03-02T18:55:20.519Z,4.50
2023-03-02T18:57:47.711Z,4.40
2023-03-02T19:00:21.605Z,4.53
2023-03-02T19:02:48.982Z,4.40
2023-03-02T19:05:19.851Z,4.18
2023-03-02T19:07:47.650Z,4.22
2023-03-02T19:10:15.384Z,4.25
2023-03-02T19:12:42.479Z,4.35
2023-03-02T19:15:10.471Z,4.32
2023-03-02T19:17:39.590Z,4.57
2023-03-02T19:20:07.189Z,4.03
2023-03-02T19:22:34.464Z,4.57
2023-03-02T19:25:01.469Z,4.10
2023-03-02T19:27:28.517Z,4.32
2023-03-02T19:29:55.583Z,4.10
2023-03-02T19:32:22.747Z,4.55
2023-03-02T19:34:49.854Z,4.25
2023-03-02T19:37:16.868Z,4.18
2023-03-02T19:39:43.886Z,4.10
2023-03-02T19:42:12.754Z,3.70
2023-03-02T19:44:39.754Z,4.03
2023-03-02T19:47:06.793Z,4.22
2023-03-02T19:49:33.796Z,4.15
2023-03-02T19:52:01.899Z,4.10
2023-03-02T19:54:28.919Z,3.75
2023-03-02T19:56:56.329Z,4.22
2023-03-02T19:59:24.574Z,4.20
2023-03-02T20:01:52.718Z,4.38
2023-03-02T20:04:19.791Z,4.10
2023-03-02T20:06:46.892Z,4.15
2023-03-02T20:09:19.412Z,4.07
2023-03-02T20:11:47.257Z,4.18
2023-03-02T20:14:27.557Z,4.47
2023-03-02T20:17:00.802Z,4.18
2023-03-02T20:19:27.841Z,4.07
2023-03-02T20:21:54.908Z,4.10
2023-03-02T20:24:22.005Z,4.00
2023-03-02T20:26:49.091Z,4.17
2023-03-02T20:29:16.801Z,3.95
2023-03-02T20:31:43.813Z,4.10
2023-03-02T20:34:11.756Z,4.10
2023-03-02T20:36:38.948Z,3.63
2023-03-02T20:39:11.418Z,3.90
2023-03-02T20:41:38.577Z,4.10
2023-03-02T20:44:05.956Z,4.20
2023-03-02T20:46:35.153Z,4.07
2023-03-02T20:49:02.677Z,4.27
2023-03-02T20:51:30.442Z,3.70
2023-03-02T20:53:57.529Z,4.00
2023-03-02T20:56:24.760Z,3.92
2023-03-02T20:58:52.300Z,4.03
2023-03-02T21:01:20.341Z,4.05
2023-03-02T21:03:48.164Z,4.27
2023-03-02T21:06:15.254Z,4.07
2023-03-02T21:08:42.805Z,4.18
2023-03-02T21:11:15.676Z,4.10
2023-03-02T21:13:45.760Z,4.00
2023-03-02T21:16:16.038Z,4.55
2023-03-02T21:18:43.049Z,3.78
2023-03-02T21:21:10.078Z,4.07
2023-03-02T21:23:37.121Z,4.03
2023-03-02T21:26:04.222Z,4.10
2023-03-02T21:28:31.213Z,4.32
2023-03-02T21:30:58.243Z,4.20
2023-03-02T21:33:25.304Z,3.78
2023-03-02T21:35:52.376Z,4.00
2023-03-02T21:38:20.892Z,3.73
2023-03-02T21:40:47.963Z,4.00
2023-03-02T21:43:15.612Z,4.00
2023-03-02T21:45:43.000Z,4.00
2023-03-02T21:48:10.227Z,4.00
2023-03-02T21:50:38.348Z,3.87
2023-03-02T21:53:06.073Z,4.10
2023-03-02T21:55:33.288Z,4.00
2023-03-02T21:58:00.736Z,3.90
2023-03-02T22:00:29.517Z,4.20
2023-03-02T22:02:57.002Z,3.95
2023-03-02T22:05:23.998Z,3.60
2023-03-02T22:07:51.096Z,4.07
2023-03-02T22:10:53.677Z,4.20
2023-03-02T22:13:38.814Z,3.88
2023-03-02T22:16:12.089Z,4.40
2023-03-02T22:18:39.178Z,3.90
2023-03-02T22:21:25.110Z,3.78
2023-03-02T22:23:54.626Z,3.93
2023-03-02T22:26:21.653Z,4.38
2023-03-02T22:28:49.055Z,4.10
2023-03-02T22:31:20.231Z,3.78
2023-03-02T22:33:47.779Z,4.00
2023-03-02T22:36:22.309Z,3.90
2023-03-02T22:38:49.524Z,4.17
2023-03-02T22:41:18.111Z,4.30
2023-03-02T22:43:45.593Z,3.90
2023-03-02T22:46:15.850Z,4.28
2023-03-02T22:48:44.685Z,3.92
2023-03-02T22:51:19.286Z,3.97
2023-03-02T22:53:48.255Z,4.13
2023-03-02T22:56:38.832Z,3.78
2023-03-02T22:59:19.698Z,3.80
2023-03-02T23:01:46.718Z,4.13
2023-03-02T23:04:21.543Z,4.05
2023-03-02T23:06:53.469Z,4.13
2023-03-02T23:09:22.911Z,4.00
2023-03-02T23:11:50.851Z,3.95
2023-03-02T23:14:19.738Z,4.00
2023-03-02T23:16:48.993Z,3.90
2023-03-02T23:19:16.049Z,3.60
2023-03-02T23:21:46.282Z,3.50
2023-03-02T23:24:13.381Z,3.75
2023-03-02T23:26:40.511Z,3.80
2023-03-02T23:29:07.541Z,3.78
2023-03-02T23:31:34.612Z,4.30
2023-03-02T23:34:01.900Z,3.70
2023-03-02T23:36:30.751Z,4.03
2023-03-02T23:38:58.150Z,3.60
2023-03-02T23:41:25.287Z,3.97
2023-03-02T23:43:52.387Z,4.10
2023-03-02T23:46:19.584Z,3.92
2023-03-02T23:48:47.745Z,4.10
2023-03-02T23:51:14.974Z,3.95
2023-03-02T23:53:42.134Z,4.00
2023-03-02T23:56:09.221Z,3.60
2023-03-02T23:58:36.233Z,3.70
